Time;durP1;ratioP1;P1;durP2;ratioP2;P2;SDS_P1;SDS_P2;PMS_P1;PMS_P2;Temp;Humidity;BMP_temperature;BMP_pressure;BME280_temperature;BME280_humidity;BME280_pressure;Samples;Min_cycle;Max_cycle;Signal;HPM_P1;HPM_P2
2023/03/07 00:00:18;;;;;;;11.10;8.70;;;;;;;2.73;nan;96968.22;5056514;28;20215;-73
2023/03/07 00:02:49;;;;;;;10.90;8.60;;;;;;;2.85;nan;96964.00;5056976;28;20240;-73
2023/03/07 00:05:16;;;;;;;12.03;8.97;;;;;;;2.85;nan;96957.97;5057407;28;20247;-73
2023/03/07 00:07:42;;;;;;;10.97;8.53;;;;;;;2.89;nan;96961.81;5056775;28;20208;-73
2023/03/07 00:10:10;;;;;;;12.03;8.50;;;;;;;2.79;nan;96958.72;5056715;28;20660;-73
2023/03/07 00:12:36;;;;;;;11.77;8.60;;;;;;;2.87;nan;96966.44;5056788;28;20225;-73
2023/03/07 00:15:03;;;;;;;10.87;8.47;;;;;;;2.87;nan;96963.81;5056589;28;20213;-73
2023/03/07 00:17:29;;;;;;;15.60;8.50;;;;;;;2.88;nan;96965.44;5056770;28;20193;-73
2023/03/07 00:19:56;;;;;;;12.83;8.67;;;;;;;2.92;nan;96962.22;5056709;28;20201;-73
2023/03/07 00:22:22;;;;;;;19.10;9.60;;;;;;;2.87;nan;96964.63;5056263;28;20221;-73
2023/03/07 00:24:49;;;;;;;16.90;9.20;;;;;;;2.95;nan;96961.84;5056628;28;20232;-73
2023/03/07 00:27:15;;;;;;;21.60;9.50;;;;;;;2.98;nan;96960.63;5056555;28;20205;-73
2023/03/07 00:29:41;;;;;;;21.53;9.03;;;;;;;3.00;nan;96961.22;5056348;28;20233;-73
2023/03/07 00:32:08;;;;;;;14.17;8.67;;;;;;;2.95;nan;96955.78;5056396;28;20229;-73
2023/03/07 00:34:34;;;;;;;11.30;8.93;;;;;;;2.92;nan;96953.53;5056409;28;20205;-73
2023/03/07 00:37:00;;;;;;;12.67;8.67;;;;;;;2.96;nan;96957.38;5056365;28;20570;-73
2023/03/07 00:39:27;;;;;;;11.77;8.53;;;;;;;2.92;nan;96950.91;5055959;28;20539;-73
2023/03/07 00:41:53;;;;;;;11.90;8.80;;;;;;;2.99;nan;96951.75;5056056;28;20247;-73
2023/03/07 00:44:19;;;;;;;13.83;8.50;;;;;;;2.96;nan;96952.94;5056208;28;20205;-73
2023/03/07 00:46:46;;;;;;;10.53;8.40;;;;;;;2.93;nan;96936.81;5056160;28;20288;-73
2023/03/07 00:49:12;;;;;;;11.20;8.43;;;;;;;2.91;nan;96925.66;5055341;28;20232;-73
2023/03/07 00:51:39;;;;;;;12.33;8.67;;;;;;;2.93;nan;96928.94;5055972;28;20205;-73
2023/03/07 00:54:05;;;;;;;10.70;7.93;;;;;;;2.98;nan;96929.94;5056060;28;20205;-73
2023/03/07 00:56:31;;;;;;;10.50;8.00;;;;;;;3.04;nan;96928.34;5056042;28;20213;-73
2023/03/07 00:58:58;;;;;;;10.40;8.20;;;;;;;3.09;nan;96925.91;5055980;28;20197;-73
2023/03/07 01:01:25;;;;;;;10.37;8.60;;;;;;;3.02;nan;96922.50;5055948;28;20589;-73
2023/03/07 01:03:53;;;;;;;13.33;9.00;;;;;;;3.00;nan;96927.94;5055790;28;20233;-73
2023/03/07 01:06:21;;;;;;;10.40;8.13;;;;;;;3.08;nan;96921.69;5055808;28;20292;-73
2023/03/07 01:08:47;;;;;;;9.57;8.10;;;;;;;3.07;nan;96917.44;5055976;28;20225;-73
2023/03/07 01:11:15;;;;;;;9.43;8.10;;;;;;;3.00;nan;96922.69;5055708;28;20303;-73
2023/03/07 01:13:41;;;;;;;10.13;8.17;;;;;;;2.99;nan;96925.50;5055657;28;20221;-73
2023/03/07 01:16:08;;;;;;;9.97;8.47;;;;;;;2.99;nan;96920.25;5055252;28;20695;-73
2023/03/07 01:18:34;;;;;;;11.50;7.83;;;;;;;3.02;nan;96919.84;5055632;28;20201;-73
2023/03/07 01:21:00;;;;;;;10.97;7.93;;;;;;;3.01;nan;96913.78;5055593;28;20205;-73
2023/03/07 01:23:27;;;;;;;11.97;7.57;;;;;;;3.03;nan;96916.22;5055435;28;20225;-73
2023/03/07 01:25:53;;;;;;;11.77;7.43;;;;;;;3.06;nan;96910.56;5055475;28;20208;-73
2023/03/07 01:28:19;;;;;;;10.47;7.80;;;;;;;3.10;nan;96917.03;5055365;28;20267;-73
2023/03/07 01:30:46;;;;;;;9.77;7.03;;;;;;;3.11;nan;96916.81;5055387;28;20209;-73
2023/03/07 01:33:12;;;;;;;12.07;7.40;;;;;;;3.09;nan;96916.22;5055147;28;20720;-73
2023/03/07 01:35:40;;;;;;;11.57;7.57;;;;;;;3.12;nan;96912.41;5055302;28;20576;-73
2023/03/07 01:38:06;;;;;;;9.70;7.30;;;;;;;3.08;nan;96913.81;5054857;28;20206;-73
2023/03/07 01:40:33;;;;;;;10.07;7.47;;;;;;;3.10;nan;96909.97;5055191;28;20209;-73
2023/03/07 01:43:32;;;;;;;8.93;6.80;;;;;;;3.12;nan;96904.53;5055038;28;20704;-72
2023/03/07 01:46:16;;;;;;;8.63;7.33;;;;;;;3.08;nan;96898.84;5054743;28;20205;-73
2023/03/07 01:48:46;;;;;;;10.90;7.53;;;;;;;3.13;nan;96900.88;5054630;28;20569;-73
2023/03/07 01:51:13;;;;;;;10.63;7.47;;;;;;;3.10;nan;96898.66;5054677;28;20209;-73
2023/03/07 01:53:40;;;;;;;9.97;7.73;;;;;;;3.12;nan;96894.03;5054959;28;20228;-73
2023/03/07 01:56:07;;;;;;;11.13;7.40;;;;;;;3.05;nan;96887.94;5054909;28;20209;-72
2023/03/07 01:58:38;;;;;;;9.03;7.00;;;;;;;3.09;nan;96889.16;5054532;28;20567;-73
2023/03/07 02:01:08;;;;;;;9.13;7.77;;;;;;;3.09;nan;96891.78;5055173;28;20202;-73
2023/03/07 02:04:04;;;;;;;8.90;7.37;;;;;;;3.03;nan;96887.34;5053283;28;20569;-73
2023/03/07 02:06:35;;;;;;;9.63;7.33;;;;;;;3.06;nan;96879.88;5049460;28;20211;-73
2023/03/07 02:09:02;;;;;;;10.23;7.50;;;;;;;3.05;nan;96886.13;5054314;28;20573;-73
2023/03/07 02:11:29;;;;;;;9.57;7.17;;;;;;;3.03;nan;96879.47;5054467;28;20212;-73
2023/03/07 02:13:55;;;;;;;10.10;6.97;;;;;;;3.09;nan;96874.22;5054690;28;20554;-73
2023/03/07 02:16:22;;;;;;;9.47;7.37;;;;;;;3.03;nan;96868.97;5054165;28;20244;-73
2023/03/07 02:18:50;;;;;;;8.97;7.40;;;;;;;3.01;nan;96877.03;5054980;28;20206;-73
2023/03/07 02:21:43;;;;;;;10.40;7.43;;;;;;;3.08;nan;96875.22;5054064;28;20665;-73
2023/03/07 02:24:15;;;;;;;10.43;7.60;;;;;;;3.06;nan;96879.88;5054364;28;20185;-73
2023/03/07 02:26:46;;;;;;;10.60;7.40;;;;;;;3.07;nan;96881.47;5054854;28;20190;-73
2023/03/07 02:29:14;;;;;;;9.63;7.50;;;;;;;3.11;nan;96874.03;5053877;28;20857;-72
2023/03/07 02:31:41;;;;;;;8.90;7.30;;;;;;;3.14;nan;96877.06;5054133;28;20351;-73
2023/03/07 02:34:26;;;;;;;11.13;7.80;;;;;;;3.09;nan;96868.97;5053837;28;20331;-73
2023/03/07 02:36:58;;;;;;;9.10;7.50;;;;;;;3.07;nan;96870.19;5054333;28;20209;-72
2023/03/07 02:39:28;;;;;;;10.03;7.73;;;;;;;3.16;nan;96861.09;5054573;28;20182;-73
2023/03/07 02:41:58;;;;;;;11.37;7.37;;;;;;;3.13;nan;96859.69;5052701;28;20232;-72
2023/03/07 02:44:25;;;;;;;10.43;6.77;;;;;;;3.05;nan;96854.63;5053819;28;20215;-73
2023/03/07 02:46:51;;;;;;;10.03;7.27;;;;;;;3.11;nan;96853.03;5053552;28;20206;-73
2023/03/07 02:49:17;;;;;;;9.53;7.00;;;;;;;3.13;nan;96848.38;5053790;28;20247;-73
2023/03/07 02:51:44;;;;;;;10.57;7.50;;;;;;;3.08;nan;96840.28;5053823;28;20209;-73
2023/03/07 02:54:10;;;;;;;9.03;7.20;;;;;;;3.11;nan;96847.78;5054085;28;20209;-73
2023/03/07 02:56:37;;;;;;;10.17;7.80;;;;;;;3.11;nan;96839.91;5053828;28;20238;-73
2023/03/07 02:59:03;;;;;;;9.07;7.37;;;;;;;3.08;nan;96835.81;5053785;28;20204;-73
2023/03/07 03:01:30;;;;;;;10.80;8.27;;;;;;;3.06;nan;96837.03;5053348;28;20209;-73
2023/03/07 03:03:56;;;;;;;9.77;7.10;;;;;;;3.08;nan;96827.94;5053696;28;20209;-73
2023/03/07 03:06:23;;;;;;;9.20;7.50;;;;;;;3.05;nan;96836.25;5053639;28;20209;-73
2023/03/07 03:08:49;;;;;;;10.37;7.50;;;;;;;3.06;nan;96830.00;5053540;28;20228;-73
2023/03/07 03:11:15;;;;;;;10.17;8.10;;;;;;;3.05;nan;96835.44;5053294;28;20296;-73
2023/03/07 03:13:42;;;;;;;9.50;7.43;;;;;;;3.08;nan;96832.41;5052820;28;20738;-73
2023/03/07 03:16:08;;;;;;;8.87;7.07;;;;;;;3.07;nan;96833.44;5053180;28;20696;-73
2023/03/07 03:18:34;;;;;;;10.00;7.67;;;;;;;3.07;nan;96833.44;5053238;28;20213;-73
2023/03/07 03:21:07;;;;;;;8.23;7.20;;;;;;;3.11;nan;96832.81;5053209;28;20209;-73
2023/03/07 03:23:33;;;;;;;9.03;7.47;;;;;;;3.12;nan;96831.78;5053622;28;20247;-73
2023/03/07 03:26:03;;;;;;;9.57;7.30;;;;;;;3.15;nan;96830.59;5053394;28;20201;-73
2023/03/07 03:28:30;;;;;;;9.60;7.90;;;;;;;3.04;nan;96832.03;5053604;28;20263;-73
2023/03/07 03:30:58;;;;;;;9.47;7.13;;;;;;;3.15;nan;96830.59;5053650;28;20216;-73
2023/03/07 03:33:26;;;;;;;10.73;7.50;;;;;;;3.11;nan;96838.06;5052973;28;20712;-73
2023/03/07 03:35:52;;;;;;;9.03;7.37;;;;;;;3.15;nan;96830.59;5051849;28;20664;-73
2023/03/07 03:38:18;;;;;;;9.43;7.63;;;;;;;3.07;nan;96834.22;5053238;28;20216;-73
2023/03/07 03:40:45;;;;;;;11.27;8.23;;;;;;;3.13;nan;96822.13;5053254;28;20201;-73
2023/03/07 03:43:11;;;;;;;9.87;7.70;;;;;;;3.18;nan;96825.75;5053212;28;20232;-73
2023/03/07 03:45:39;;;;;;;11.97;8.33;;;;;;;3.10;nan;96831.19;5053283;28;20201;-73
2023/03/07 03:48:06;;;;;;;10.47;7.67;;;;;;;3.14;nan;96823.72;5053147;28;20205;-73
2023/03/07 03:50:32;;;;;;;9.43;7.67;;;;;;;3.18;nan;96819.69;5053574;28;20229;-73
2023/03/07 03:53:00;;;;;;;11.00;8.03;;;;;;;3.22;nan;96819.09;5053094;28;20225;-73
2023/03/07 03:55:26;;;;;;;9.00;7.67;;;;;;;3.21;nan;96819.28;5053019;28;20213;-73
2023/03/07 03:57:53;;;;;;;10.13;7.53;;;;;;;3.23;nan;96812.00;5053067;28;20209;-73
2023/03/07 04:00:19;;;;;;;10.60;7.80;;;;;;;3.16;nan;96801.50;5052993;28;20201;-73
2023/03/07 04:02:47;;;;;;;10.33;8.13;;;;;;;3.14;nan;96805.34;5052916;28;20225;-73
2023/03/07 04:05:13;;;;;;;10.33;7.50;;;;;;;3.07;nan;96805.34;5052855;28;20205;-73
2023/03/07 04:07:39;;;;;;;10.97;8.03;;;;;;;3.02;nan;96797.28;5052600;28;20209;-73
2023/03/07 04:10:06;;;;;;;11.10;8.20;;;;;;;3.00;nan;96811.59;5052824;28;20226;-72
2023/03/07 04:12:33;;;;;;;10.93;8.50;;;;;;;3.07;nan;96807.97;5052830;28;20236;-73
2023/03/07 04:14:59;;;;;;;10.77;8.20;;;;;;;3.10;nan;96801.50;5052685;28;20228;-73
2023/03/07 04:17:25;;;;;;;10.77;7.90;;;;;;;3.10;nan;96806.75;5052872;28;20190;-73
2023/03/07 04:19:52;;;;;;;9.97;7.27;;;;;;;3.17;nan;96803.09;5052540;28;20202;-73
2023/03/07 04:22:18;;;;;;;10.47;7.90;;;;;;;3.12;nan;96794.25;5052777;28;20229;-73
2023/03/07 04:24:44;;;;;;;11.13;8.20;;;;;;;3.20;nan;96796.69;5053545;28;20544;-73
2023/03/07 04:27:11;;;;;;;11.27;8.30;;;;;;;3.16;nan;96792.84;5056513;28;20211;-73
2023/03/07 04:29:37;;;;;;;12.67;8.60;;;;;;;3.19;nan;96787.16;5056277;28;20235;-73
2023/03/07 04:32:03;;;;;;;11.27;8.53;;;;;;;3.25;nan;96794.25;5056350;28;20235;-73
2023/03/07 04:34:30;;;;;;;10.70;8.57;;;;;;;3.22;nan;96805.13;5056185;28;20205;-73
2023/03/07 04:36:56;;;;;;;10.83;8.47;;;;;;;3.16;nan;96795.47;5056222;28;20201;-73
2023/03/07 04:39:22;;;;;;;13.07;8.07;;;;;;;3.21;nan;96790.41;5055804;28;20204;-72
2023/03/07 04:41:49;;;;;;;12.40;8.77;;;;;;;3.21;nan;96788.56;5056655;28;20248;-73
2023/03/07 04:44:15;;;;;;;11.60;8.40;;;;;;;3.24;nan;96789.97;5055910;28;20208;-73
2023/03/07 04:46:42;;;;;;;9.43;7.50;;;;;;;3.20;nan;96791.41;5055507;28;20233;-72
2023/03/07 04:49:09;;;;;;;9.80;8.47;;;;;;;3.21;nan;96791.19;5055602;28;20205;-72
2023/03/07 04:51:35;;;;;;;10.30;8.37;;;;;;;3.25;nan;96779.28;5055888;28;20209;-73
2023/03/07 04:54:01;;;;;;;12.23;8.70;;;;;;;3.22;nan;96778.88;5055804;28;20205;-73
2023/03/07 04:56:28;;;;;;;10.27;7.97;;;;;;;3.19;nan;96774.03;5055828;28;20207;-73
2023/03/07 04:58:54;;;;;;;11.90;8.83;;;;;;;3.18;nan;96772.41;5055181;28;20224;-73
2023/03/07 05:01:20;;;;;;;12.93;8.60;;;;;;;3.22;nan;96771.81;5055457;28;20201;-73
2023/03/07 05:03:47;;;;;;;10.77;8.63;;;;;;;3.20;nan;96771.19;5055421;28;20227;-73
2023/03/07 05:06:15;;;;;;;11.23;8.20;;;;;;;3.26;nan;96773.00;5055626;28;20209;-73
2023/03/07 05:08:41;;;;;;;10.93;8.27;;;;;;;3.19;nan;96766.97;5055487;28;20213;-73
2023/03/07 05:11:08;;;;;;;12.10;8.23;;;;;;;3.25;nan;96767.97;5055151;28;20725;-73
2023/03/07 05:13:34;;;;;;;10.33;8.43;;;;;;;3.24;nan;96767.16;5055194;28;20704;-73
2023/03/07 05:16:01;;;;;;;10.30;8.70;;;;;;;3.21;nan;96761.53;5055077;28;20695;-73
2023/03/07 05:18:28;;;;;;;10.80;9.10;;;;;;;3.25;nan;96757.47;5055423;28;20207;-73
2023/03/07 05:20:54;;;;;;;12.33;8.83;;;;;;;3.23;nan;96762.94;5055356;28;20220;-72
2023/03/07 05:23:21;;;;;;;10.23;8.80;;;;;;;3.18;nan;96754.03;5054961;28;20228;-72
2023/03/07 05:25:47;;;;;;;10.43;8.30;;;;;;;3.23;nan;96755.06;5055576;28;20212;-73
2023/03/07 05:28:15;;;;;;;12.43;8.63;;;;;;;3.19;nan;96745.97;5054850;28;20209;-72
2023/03/07 05:30:42;;;;;;;10.40;8.50;;;;;;;3.22;nan;96748.19;5054650;28;20584;-73
2023/03/07 05:33:09;;;;;;;12.13;8.23;;;;;;;3.17;nan;96749.81;5054869;28;20225;-72
2023/03/07 05:35:35;;;;;;;10.93;8.23;;;;;;;3.20;nan;96752.81;5054612;28;20205;-73
2023/03/07 05:38:01;;;;;;;11.30;9.03;;;;;;;3.21;nan;96754.44;5054720;28;20206;-73
2023/03/07 05:40:28;;;;;;;13.93;8.87;;;;;;;3.22;nan;96755.25;5054558;28;20213;-73
2023/03/07 05:42:54;;;;;;;13.80;8.40;;;;;;;3.30;nan;96753.19;5055005;28;20225;-73
2023/03/07 05:45:21;;;;;;;12.53;8.33;;;;;;;3.33;nan;96749.34;5054410;28;20215;-72
2023/03/07 05:47:47;;;;;;;9.60;8.20;;;;;;;3.35;nan;96747.34;5054336;28;20201;-73
2023/03/07 05:50:13;;;;;;;10.13;8.03;;;;;;;3.32;nan;96750.38;5054390;28;20225;-73
2023/03/07 05:52:40;;;;;;;11.03;8.53;;;;;;;3.31;nan;96746.16;5054506;28;20231;-73
2023/03/07 05:55:07;;;;;;;10.90;8.17;;;;;;;3.31;nan;96746.97;5054526;28;20215;-73
2023/03/07 05:57:34;;;;;;;11.93;7.80;;;;;;;3.34;nan;96745.75;5054073;28;20209;-73
2023/03/07 06:00:00;;;;;;;10.37;8.80;;;;;;;3.30;nan;96749.78;5053909;28;20241;-73
2023/03/07 06:02:26;;;;;;;10.23;8.33;;;;;;;3.36;nan;96747.16;5053986;28;20236;-73
2023/03/07 06:04:53;;;;;;;10.93;8.53;;;;;;;3.30;nan;96741.91;5054252;28;20236;-73
2023/03/07 06:07:19;;;;;;;10.90;8.30;;;;;;;3.30;nan;96744.53;5053894;28;20533;-73
2023/03/07 06:09:45;;;;;;;11.87;8.67;;;;;;;3.30;nan;96734.81;5054021;28;20247;-73
2023/03/07 06:12:12;;;;;;;11.90;8.67;;;;;;;3.29;nan;96733.22;5053664;28;20225;-73
2023/03/07 06:14:38;;;;;;;12.40;8.03;;;;;;;3.31;nan;96727.75;5053110;28;20211;-73
2023/03/07 06:17:06;;;;;;;12.53;8.00;;;;;;;3.32;nan;96726.75;5053184;28;20569;-73
2023/03/07 06:19:32;;;;;;;8.80;7.77;;;;;;;3.33;nan;96728.34;5053837;28;20209;-73
2023/03/07 06:21:59;;;;;;;11.37;8.10;;;;;;;3.34;nan;96725.53;5053314;28;20231;-73
2023/03/07 06:24:25;;;;;;;12.77;8.30;;;;;;;3.35;nan;96731.59;5053457;28;20812;-73
2023/03/07 06:26:51;;;;;;;11.20;7.77;;;;;;;3.36;nan;96738.44;5053520;28;20201;-73
2023/03/07 06:29:18;;;;;;;10.47;7.87;;;;;;;3.35;nan;96734.22;5052928;28;20232;-72
2023/03/07 06:31:44;;;;;;;10.53;8.03;;;;;;;3.42;nan;96732.38;5053197;28;20217;-73
2023/03/07 06:34:10;;;;;;;11.13;7.47;;;;;;;3.39;nan;96738.06;5053590;28;20208;-73
2023/03/07 06:36:37;;;;;;;9.50;7.73;;;;;;;3.41;nan;96736.84;5053509;28;20215;-73
2023/03/07 06:39:03;;;;;;;11.67;7.87;;;;;;;3.39;nan;96728.34;5053214;28;20213;-73
2023/03/07 06:41:30;;;;;;;11.77;8.07;;;;;;;3.46;nan;96733.56;5054200;28;20535;-72
2023/03/07 06:43:56;;;;;;;10.63;7.30;;;;;;;3.42;nan;96729.75;5053408;28;20205;-73
2023/03/07 06:46:22;;;;;;;9.37;7.50;;;;;;;3.36;nan;96720.88;5052903;28;20209;-73
2023/03/07 06:48:50;;;;;;;8.47;7.20;;;;;;;3.42;nan;96725.31;5052948;28;20543;-73
2023/03/07 06:51:17;;;;;;;14.20;8.40;;;;;;;3.48;nan;96721.06;5053197;28;20684;-73
2023/03/07 06:53:44;;;;;;;11.43;7.77;;;;;;;3.55;nan;96727.91;5052720;28;20225;-73
2023/03/07 06:56:10;;;;;;;10.13;7.73;;;;;;;3.57;nan;96732.94;5053057;28;20263;-72
2023/03/07 06:58:36;;;;;;;10.40;7.30;;;;;;;3.66;nan;96735.13;5052740;28;20216;-73
2023/03/07 07:01:03;;;;;;;11.80;7.90;;;;;;;3.67;nan;96735.94;5052648;28;20201;-73
2023/03/07 07:03:29;;;;;;;10.57;8.00;;;;;;;3.73;nan;96735.09;5052354;28;20233;-73
2023/03/07 07:05:56;;;;;;;11.00;7.73;;;;;;;3.79;nan;96734.28;5052636;28;20209;-73
2023/03/07 07:08:22;;;;;;;10.87;7.40;;;;;;;3.80;nan;96725.38;5052827;28;20227;-73
2023/03/07 07:10:48;;;;;;;9.83;7.43;;;;;;;3.88;nan;96731.19;5052911;28;20221;-73
2023/03/07 07:13:15;;;;;;;10.13;8.40;;;;;;;3.86;nan;96727.16;5052504;28;20229;-73
2023/03/07 07:15:41;;;;;;;8.47;7.30;;;;;;;3.96;nan;96728.34;5051819;28;20216;-73
2023/03/07 07:18:08;;;;;;;8.83;7.37;;;;;;;4.11;nan;96722.81;5052408;28;20201;-73
2023/03/07 07:20:35;;;;;;;9.13;7.50;;;;;;;4.10;nan;96727.25;5052469;28;20229;-74
2023/03/07 07:23:01;;;;;;;7.73;6.80;;;;;;;4.18;nan;96728.81;5052573;28;20286;-73
2023/03/07 07:25:28;;;;;;;9.87;7.47;;;;;;;4.25;nan;96724.34;5053318;28;20205;-73
2023/03/07 07:27:54;;;;;;;9.93;7.27;;;;;;;4.38;nan;96729.53;5052626;28;20212;-73
2023/03/07 07:30:21;;;;;;;9.47;7.17;;;;;;;4.39;nan;96731.13;5052010;28;20221;-73
2023/03/07 07:32:47;;;;;;;8.13;6.93;;;;;;;4.30;nan;96724.50;5052657;28;20247;-73
2023/03/07 07:35:13;;;;;;;9.37;7.47;;;;;;;4.31;nan;96734.81;5052931;28;20208;-73
2023/03/07 07:37:40;;;;;;;8.30;7.10;;;;;;;4.32;nan;96731.16;5052382;28;20205;-73
2023/03/07 07:40:09;;;;;;;10.60;7.50;;;;;;;4.34;nan;96736.22;5052257;28;20212;-73
2023/03/07 07:42:35;;;;;;;10.77;7.53;;;;;;;4.36;nan;96728.91;5052465;28;20247;-73
2023/03/07 07:45:01;;;;;;;9.07;7.40;;;;;;;4.39;nan;96731.13;5052085;28;20209;-72
2023/03/07 07:47:28;;;;;;;8.43;7.37;;;;;;;4.43;nan;96727.06;5052236;28;20208;-73
2023/03/07 07:49:54;;;;;;;11.07;6.70;;;;;;;4.43;nan;96734.97;5052235;28;20201;-73
2023/03/07 07:52:20;;;;;;;10.23;7.70;;;;;;;4.47;nan;96728.25;5052070;28;20704;-72
2023/03/07 07:54:47;;;;;;;8.23;7.20;;;;;;;4.60;nan;96726.31;5052603;28;20570;-72
2023/03/07 07:57:13;;;;;;;8.20;7.07;;;;;;;4.73;nan;96738.56;5052612;28;20235;-72
2023/03/07 07:59:39;;;;;;;9.53;7.90;;;;;;;4.77;nan;96734.50;5055319;28;20213;-73
2023/03/07 08:02:06;;;;;;;11.93;7.20;;;;;;;4.71;nan;96728.25;5056176;28;20225;-73
2023/03/07 08:04:34;;;;;;;8.73;7.13;;;;;;;4.73;nan;96728.03;5056291;28;20688;-73
2023/03/07 08:07:00;;;;;;;9.07;7.30;;;;;;;4.68;nan;96719.97;5056108;28;20634;-73
2023/03/07 08:09:27;;;;;;;7.60;6.80;;;;;;;4.72;nan;96729.06;5056266;28;20223;-73
2023/03/07 08:11:53;;;;;;;9.17;6.73;;;;;;;4.82;nan;96721.50;5056292;28;20750;-73
2023/03/07 08:14:20;;;;;;;7.87;6.50;;;;;;;4.94;nan;96717.13;5056060;28;20209;-73
2023/03/07 08:16:46;;;;;;;8.60;7.30;;;;;;;4.88;nan;96718.00;5055914;28;20295;-73
2023/03/07 08:19:12;;;;;;;10.53;6.73;;;;;;;4.95;nan;96716.13;5056282;28;20209;-73
2023/03/07 08:21:39;;;;;;;9.97;6.57;;;;;;;5.03;nan;96714.03;5056286;28;20546;-73
2023/03/07 08:24:05;;;;;;;10.47;7.10;;;;;;;5.06;nan;96710.94;5055748;28;20209;-73
2023/03/07 08:26:32;;;;;;;9.50;6.43;;;;;;;5.09;nan;96710.53;5055779;28;20205;-72
2023/03/07 08:28:58;;;;;;;10.73;7.20;;;;;;;5.26;nan;96708.94;5055347;28;20209;-73
2023/03/07 08:31:25;;;;;;;8.50;6.30;;;;;;;5.21;nan;96713.25;5055528;28;20695;-72
2023/03/07 08:33:52;;;;;;;8.10;6.83;;;;;;;5.30;nan;96714.56;5055860;28;20221;-73
2023/03/07 08:36:18;;;;;;;8.40;7.07;;;;;;;5.47;nan;96702.44;5055501;28;20210;-73
2023/03/07 08:38:51;;;;;;;9.80;7.20;;;;;;;5.51;nan;96699.13;5055487;28;20675;-72
2023/03/07 08:41:19;;;;;;;10.17;7.37;;;;;;;5.52;nan;96705.22;5055788;28;20185;-72
2023/03/07 08:43:45;;;;;;;7.73;6.63;;;;;;;5.63;nan;96707.09;5055112;28;20703;-72
2023/03/07 08:46:12;;;;;;;7.60;6.70;;;;;;;5.57;nan;96700.09;5055640;28;20296;-72
2023/03/07 08:48:38;;;;;;;9.43;7.10;;;;;;;5.64;nan;96695.53;5055671;28;20233;-72
2023/03/07 08:51:11;;;;;;;8.80;6.47;;;;;;;5.74;nan;96706.38;5055021;28;20220;-72
2023/03/07 08:53:38;;;;;;;6.50;5.70;;;;;;;5.50;nan;96691.44;5055056;28;20225;-72
2023/03/07 08:56:08;;;;;;;10.83;6.53;;;;;;;5.83;nan;96702.44;5055878;28;20211;-72
2023/03/07 08:58:35;;;;;;;10.50;6.17;;;;;;;5.81;nan;96707.94;5055434;28;20190;-72
2023/03/07 09:01:03;;;;;;;9.60;6.37;;;;;;;5.65;nan;96697.16;5054513;28;20197;-72
2023/03/07 09:03:29;;;;;;;8.10;6.03;;;;;;;5.68;nan;96694.88;5066246;28;20258;-72
2023/03/07 09:05:56;;;;;;;6.43;5.83;;;;;;;5.57;nan;96698.25;5076043;28;20216;-72
2023/03/07 09:08:25;;;;;;;8.37;6.57;;;;;;;5.49;nan;96692.47;5074899;28;20735;-72
2023/03/07 09:10:52;;;;;;;8.23;6.13;;;;;;;5.61;nan;96688.09;5074625;28;20274;-71
2023/03/07 09:13:19;;;;;;;9.90;6.87;;;;;;;5.86;nan;96691.44;5075349;28;20255;-71
2023/03/07 09:15:45;;;;;;;8.67;6.07;;;;;;;5.96;nan;96694.34;5075211;28;20223;-70
2023/03/07 09:18:12;;;;;;;7.40;6.00;;;;;;;5.96;nan;96684.59;5075462;28;20571;-71
2023/03/07 09:20:39;;;;;;;6.60;5.60;;;;;;;5.93;nan;96685.03;5075247;28;20207;-71
2023/03/07 09:23:06;;;;;;;8.23;5.30;;;;;;;5.97;nan;96680.16;5075048;28;20225;-71
2023/03/07 09:25:34;;;;;;;9.40;5.70;;;;;;;6.12;nan;96676.09;5075446;28;20200;-71
2023/03/07 09:28:00;;;;;;;6.87;5.50;;;;;;;6.23;nan;96675.31;5075053;28;20211;-71
2023/03/07 09:30:27;;;;;;;8.27;5.40;;;;;;;6.23;nan;96685.03;5074760;28;20215;-71
2023/03/07 09:32:54;;;;;;;6.83;5.33;;;;;;;6.19;nan;96689.97;5074824;28;20232;-71
2023/03/07 09:35:20;;;;;;;6.53;5.70;;;;;;;6.14;nan;96683.75;5075388;28;20205;-70
2023/03/07 09:37:47;;;;;;;5.93;5.33;;;;;;;6.08;nan;96692.56;5074435;28;20254;-71
2023/03/07 09:40:23;;;;;;;6.17;5.43;;;;;;;5.80;nan;96690.50;5074387;28;20295;-71
2023/03/07 09:43:02;;;;;;;8.23;5.20;;;;;;;5.83;nan;96689.25;5074229;28;20817;-71
2023/03/07 09:45:46;;;;;;;6.43;4.77;;;;;;;5.75;nan;96689.53;5074342;28;20374;-71
2023/03/07 09:48:44;;;;;;;5.60;4.63;;;;;;;5.71;nan;96694.44;5074579;28;20208;-71
2023/03/07 09:51:44;;;;;;;6.13;5.00;;;;;;;5.76;nan;96685.84;5074879;28;20221;-71
2023/03/07 09:54:16;;;;;;;4.90;4.40;;;;;;;5.75;nan;96692.16;5074427;28;20192;-71
2023/03/07 09:56:49;;;;;;;5.40;4.70;;;;;;;5.33;nan;96695.69;5074696;28;20193;-70
2023/03/07 09:59:24;;;;;;;6.47;4.93;;;;;;;5.44;nan;96679.97;5074175;28;20205;-71
2023/03/07 10:01:57;;;;;;;5.33;4.73;;;;;;;5.58;nan;96684.06;5074147;28;20220;-71
2023/03/07 10:04:35;;;;;;;6.90;5.67;;;;;;;5.47;nan;96676.09;5073881;28;20292;-71
2023/03/07 10:07:03;;;;;;;6.57;5.33;;;;;;;5.60;nan;96675.91;5075112;28;20193;-70
2023/03/07 10:09:30;;;;;;;5.47;4.70;;;;;;;5.62;nan;96676.50;5074817;28;20204;-71
2023/03/07 10:12:22;;;;;;;8.50;5.07;;;;;;;5.52;nan;96676.22;5074032;28;20233;-71
2023/03/07 10:15:37;;;;;;;7.13;4.70;;;;;;;5.69;nan;96677.22;5057570;28;20204;-71
2023/03/07 10:18:48;;;;;;;6.10;4.97;;;;;;;5.64;nan;96672.63;5074155;28;20235;-71
2023/03/07 10:21:28;;;;;;;6.00;4.57;;;;;;;5.53;nan;96667.28;5041419;28;20262;-71
2023/03/07 10:24:06;;;;;;;6.23;4.43;;;;;;;5.49;nan;96659.03;5071550;28;20568;-71
2023/03/07 10:26:54;;;;;;;7.57;5.00;;;;;;;5.44;nan;96669.41;5073645;28;20211;-71
2023/03/07 10:29:26;;;;;;;6.20;5.20;;;;;;;5.29;nan;96663.69;5066224;28;20216;-71
2023/03/07 10:32:16;;;;;;;6.20;4.87;;;;;;;5.16;nan;96665.69;5073863;28;20239;-70
2023/03/07 10:34:42;;;;;;;8.07;4.63;;;;;;;5.13;nan;96660.84;5073709;28;20292;-74
2023/03/07 10:37:21;;;;;;;8.50;5.27;;;;;;;5.23;nan;96659.31;5073281;28;20208;-70
2023/03/07 10:39:56;;;;;;;5.97;4.23;;;;;;;5.19;nan;96655.50;5072198;28;20211;-70
2023/03/07 10:42:24;;;;;;;7.20;4.90;;;;;;;5.15;nan;96654.31;5073236;28;20252;-70
2023/03/07 10:44:51;;;;;;;6.33;4.60;;;;;;;5.06;nan;96647.72;5073087;28;20204;-71
2023/03/07 10:47:34;;;;;;;7.17;5.27;;;;;;;5.11;nan;96655.00;5073077;28;20223;-70
2023/03/07 10:50:19;;;;;;;5.47;4.80;;;;;;;5.20;nan;96651.06;5073156;28;20184;-74
2023/03/07 10:55:42;;;;;;;7.00;4.63;;;;;;;5.21;nan;96650.03;5072500;28;20234;-71
2023/03/07 10:58:19;;;;;;;5.03;4.27;;;;;;;5.27;nan;96638.59;5072593;28;20204;-71
2023/03/07 11:00:59;;;;;;;5.80;4.83;;;;;;;5.22;nan;96649.00;5072791;28;20204;-71
2023/03/07 11:03:53;;;;;;;5.87;4.73;;;;;;;5.22;nan;96646.34;5072857;28;20315;-70
2023/03/07 11:06:49;;;;;;;7.50;4.90;;;;;;;5.20;nan;96638.66;5073264;28;20193;-71
2023/03/07 11:09:27;;;;;;;6.90;5.20;;;;;;;5.09;nan;96647.31;5069325;28;20258;-71
2023/03/07 11:12:05;;;;;;;6.23;4.73;;;;;;;5.11;nan;96637.34;5072814;28;20238;-71
2023/03/07 11:14:49;;;;;;;7.20;4.47;;;;;;;5.17;nan;96639.13;5072961;28;20192;-70
2023/03/07 11:17:51;;;;;;;7.10;5.20;;;;;;;5.20;nan;96638.66;5073065;28;20196;-70
2023/03/07 11:20:33;;;;;;;5.97;4.67;;;;;;;5.19;nan;96625.72;5072262;28;20204;-70
2023/03/07 11:23:26;;;;;;;7.97;5.40;;;;;;;5.21;nan;96629.72;5072766;28;20296;-70
2023/03/07 11:25:55;;;;;;;7.53;5.30;;;;;;;5.22;nan;96625.28;5067904;28;20668;-70
2023/03/07 11:28:31;;;;;;;5.63;4.87;;;;;;;5.12;nan;96630.25;5072587;28;20204;-70
2023/03/07 11:31:22;;;;;;;6.77;5.30;;;;;;;5.12;nan;96633.72;5072325;28;20230;-70
2023/03/07 11:33:57;;;;;;;8.10;5.00;;;;;;;5.32;nan;96617.66;5073671;28;20238;-70
2023/03/07 11:36:50;;;;;;;7.87;5.03;;;;;;;5.33;nan;96614.81;5076335;28;20522;-70
2023/03/07 11:42:21;;;;;;;6.23;4.53;;;;;;;5.37;nan;96617.78;5072662;28;20805;-70
2023/03/07 11:45:04;;;;;;;6.87;5.07;;;;;;;5.32;nan;96622.94;5075763;28;20220;-70
2023/03/07 11:48:09;;;;;;;6.17;5.07;;;;;;;5.25;nan;96630.13;5077146;28;20195;-70
2023/03/07 11:56:38;;;;;;;6.67;5.30;;;;;;;5.27;nan;96626.25;5075974;28;20215;-70
2023/03/07 11:59:22;;;;;;;6.77;5.00;;;;;;;5.30;nan;96625.00;5077497;28;20235;-70
2023/03/07 12:02:04;;;;;;;6.27;5.00;;;;;;;5.32;nan;96626.38;5076445;28;20722;-71
2023/03/07 12:04:57;;;;;;;5.43;4.77;;;;;;;5.13;nan;96614.25;5077228;28;20549;-70
2023/03/07 12:08:09;;;;;;;5.10;4.17;;;;;;;5.28;nan;96616.47;5076837;28;20240;-70
2023/03/07 12:10:54;;;;;;;8.70;4.63;;;;;;;5.26;nan;96610.66;5076148;28;20192;-70
2023/03/07 12:13:38;;;;;;;7.80;4.70;;;;;;;5.28;nan;96604.13;5076274;28;20228;-73
2023/03/07 12:16:38;;;;;;;5.90;4.43;;;;;;;5.49;nan;96600.22;5075960;28;20216;-70
2023/03/07 12:19:29;;;;;;;7.43;4.40;;;;;;;5.58;nan;96590.97;5076336;28;20262;-71